sensor_id;sensor_type;location;lat;lon;timestamp;temperature;humidity
20233;DHT22;37438;55.674;13.074;2023-06-14T00:01:21;11.60;99.90
20233;DHT22;37438;55.674;13.074;2023-06-14T00:04:26;11.60;1.00
20233;DHT22;37438;55.674;13.074;2023-06-14T00:07:34;11.50;90.20
20233;DHT22;37438;55.674;13.074;2023-06-14T00:10:39;11.50;99.90
20233;DHT22;37438;55.674;13.074;2023-06-14T00:13:46;11.40;99.90
20233;DHT22;37438;55.674;13.074;2023-06-14T00:16:51;11.40;99.90
20233;DHT22;37438;55.674;13.074;2023-06-14T00:19:57;11.30;99.90
20233;DHT22;37438;55.674;13.074;2023-06-14T00:23:02;11.30;1.00
20233;DHT22;37438;55.674;13.074;2023-06-14T00:26:06;11.20;21.00
20233;DHT22;37438;55.674;13.074;2023-06-14T00:29:11;11.30;99.90
20233;DHT22;37438;55.674;13.074;2023-06-14T00:32:15;11.20;1.00
20233;DHT22;37438;55.674;13.074;2023-06-14T00:35:20;11.20;79.60
20233;DHT22;37438;55.674;13.074;2023-06-14T00:38:24;11.20;99.90
20233;DHT22;37438;55.674;13.074;2023-06-14T00:41:29;11.20;99.90
20233;DHT22;37438;55.674;13.074;2023-06-14T00:44:35;11.10;1.00
20233;DHT22;37438;55.674;13.074;2023-06-14T00:47:40;11.10;51.10
20233;DHT22;37438;55.674;13.074;2023-06-14T00:50:46;11.10;99.90
20233;DHT22;37438;55.674;13.074;2023-06-14T00:53:52;11.00;99.90
20233;DHT22;37438;55.674;13.074;2023-06-14T00:56:57;11.00;99.90
20233;DHT22;37438;55.674;13.074;2023-06-14T01:00:01;10.90;99.90
20233;DHT22;37438;55.674;13.074;2023-06-14T01:03:06;10.90;99.90
20233;DHT22;37438;55.674;13.074;2023-06-14T01:06:35;10.80;99.90
20233;DHT22;37438;55.674;13.074;2023-06-14T01:09:39;10.80;99.90
20233;DHT22;37438;55.674;13.074;2023-06-14T01:12:58;10.70;99.90
20233;DHT22;37438;55.674;13.074;2023-06-14T01:16:07;10.70;99.90
20233;DHT22;37438;55.674;13.074;2023-06-14T01:19:12;10.70;99.90
20233;DHT22;37438;55.674;13.074;2023-06-14T01:22:17;10.70;99.90
20233;DHT22;37438;55.674;13.074;2023-06-14T01:25:23;10.60;99.90
20233;DHT22;37438;55.674;13.074;2023-06-14T01:28:27;10.60;99.90
20233;DHT22;37438;55.674;13.074;2023-06-14T01:31:36;10.60;99.90
20233;DHT22;37438;55.674;13.074;2023-06-14T01:34:46;10.60;99.90
20233;DHT22;37438;55.674;13.074;2023-06-14T01:37:50;10.60;99.90
20233;DHT22;37438;55.674;13.074;2023-06-14T01:40:56;10.50;99.90
20233;DHT22;37438;55.674;13.074;2023-06-14T01:44:02;10.50;99.90
20233;DHT22;37438;55.674;13.074;2023-06-14T01:47:09;10.50;99.90
20233;DHT22;37438;55.674;13.074;2023-06-14T01:50:14;10.50;99.90
20233;DHT22;37438;55.674;13.074;2023-06-14T01:53:19;10.50;99.90
20233;DHT22;37438;55.674;13.074;2023-06-14T01:56:24;10.50;99.90
20233;DHT22;37438;55.674;13.074;2023-06-14T01:59:30;10.40;99.90
20233;DHT22;37438;55.674;13.074;2023-06-14T02:02:35;10.40;99.90
20233;DHT22;37438;55.674;13.074;2023-06-14T02:05:39;10.40;99.90
20233;DHT22;37438;55.674;13.074;2023-06-14T02:08:44;10.30;99.90
20233;DHT22;37438;55.674;13.074;2023-06-14T02:11:49;10.30;99.90
20233;DHT22;37438;55.674;13.074;2023-06-14T02:14:53;10.20;99.90
20233;DHT22;37438;55.674;13.074;2023-06-14T02:18:00;10.20;99.90
20233;DHT22;37438;55.674;13.074;2023-06-14T02:21:05;10.20;99.90
20233;DHT22;37438;55.674;13.074;2023-06-14T02:24:09;10.20;99.90
20233;DHT22;37438;55.674;13.074;2023-06-14T02:27:14;10.20;99.90
20233;DHT22;37438;55.674;13.074;2023-06-14T02:30:20;10.20;99.90
20233;DHT22;37438;55.674;13.074;2023-06-14T02:33:25;10.20;99.90
20233;DHT22;37438;55.674;13.074;2023-06-14T02:36:30;10.10;99.90
20233;DHT22;37438;55.674;13.074;2023-06-14T02:39:37;10.10;99.90
20233;DHT22;37438;55.674;13.074;2023-06-14T02:42:41;10.20;99.90
20233;DHT22;37438;55.674;13.074;2023-06-14T02:45:46;10.20;99.90
20233;DHT22;37438;55.674;13.074;2023-06-14T02:48:50;10.20;99.90
20233;DHT22;37438;55.674;13.074;2023-06-14T02:51:55;10.20;99.90
20233;DHT22;37438;55.674;13.074;2023-06-14T02:55:00;10.30;99.90
20233;DHT22;37438;55.674;13.074;2023-06-14T02:58:04;10.30;99.90
20233;DHT22;37438;55.674;13.074;2023-06-14T03:01:09;10.50;99.90
20233;DHT22;37438;55.674;13.074;2023-06-14T03:04:17;10.60;99.90
20233;DHT22;37438;55.674;13.074;2023-06-14T03:07:22;10.60;99.90
20233;DHT22;37438;55.674;13.074;2023-06-14T03:10:30;10.70;99.90
20233;DHT22;37438;55.674;13.074;2023-06-14T03:13:36;10.90;99.90
20233;DHT22;37438;55.674;13.074;2023-06-14T03:16:42;11.00;99.90
20233;DHT22;37438;55.674;13.074;2023-06-14T03:19:49;11.20;99.90
20233;DHT22;37438;55.674;13.074;2023-06-14T03:22:53;11.20;99.90
20233;DHT22;37438;55.674;13.074;2023-06-14T03:25:59;11.30;99.90
20233;DHT22;37438;55.674;13.074;2023-06-14T03:29:04;11.50;99.90
20233;DHT22;37438;55.674;13.074;2023-06-14T03:32:08;11.60;99.90
20233;DHT22;37438;55.674;13.074;2023-06-14T03:35:16;11.80;99.90
20233;DHT22;37438;55.674;13.074;2023-06-14T03:38:22;12.00;99.90
20233;DHT22;37438;55.674;13.074;2023-06-14T03:41:28;12.10;99.90
20233;DHT22;37438;55.674;13.074;2023-06-14T03:44:33;12.20;99.90
20233;DHT22;37438;55.674;13.074;2023-06-14T03:47:38;12.40;99.90
20233;DHT22;37438;55.674;13.074;2023-06-14T03:50:43;12.50;99.90
20233;DHT22;37438;55.674;13.074;2023-06-14T03:53:48;12.70;99.90
20233;DHT22;37438;55.674;13.074;2023-06-14T03:57:14;12.90;99.90
20233;DHT22;37438;55.674;13.074;2023-06-14T04:00:19;13.10;99.90
20233;DHT22;37438;55.674;13.074;2023-06-14T04:03:24;13.40;99.90
20233;DHT22;37438;55.674;13.074;2023-06-14T04:06:29;13.60;99.90
20233;DHT22;37438;55.674;13.074;2023-06-14T04:09:37;13.90;99.90
20233;DHT22;37438;55.674;13.074;2023-06-14T04:12:42;14.10;99.90
20233;DHT22;37438;55.674;13.074;2023-06-14T04:15:47;14.30;25.80
20233;DHT22;37438;55.674;13.074;2023-06-14T04:18:58;14.70;1.00
20233;DHT22;37438;55.674;13.074;2023-06-14T04:22:02;14.80;99.90
20233;DHT22;37438;55.674;13.074;2023-06-14T04:25:10;15.00;99.90
20233;DHT22;37438;55.674;13.074;2023-06-14T04:28:17;15.10;99.90
20233;DHT22;37438;55.674;13.074;2023-06-14T04:31:23;15.40;99.90
20233;DHT22;37438;55.674;13.074;2023-06-14T04:34:33;15.70;99.90
20233;DHT22;37438;55.674;13.074;2023-06-14T04:37:39;16.00;99.90
20233;DHT22;37438;55.674;13.074;2023-06-14T04:40:46;16.20;99.90
20233;DHT22;37438;55.674;13.074;2023-06-14T04:43:54;16.50;1.00
20233;DHT22;37438;55.674;13.074;2023-06-14T04:46:59;16.70;99.90
20233;DHT22;37438;55.674;13.074;2023-06-14T04:50:03;16.90;99.90
20233;DHT22;37438;55.674;13.074;2023-06-14T04:53:08;17.20;1.00
20233;DHT22;37438;55.674;13.074;2023-06-14T04:56:13;17.40;99.90
20233;DHT22;37438;55.674;13.074;2023-06-14T04:59:17;17.50;92.60
20233;DHT22;37438;55.674;13.074;2023-06-14T05:02:23;17.90;1.00
20233;DHT22;37438;55.674;13.074;2023-06-14T05:05:29;18.00;99.90
20233;DHT22;37438;55.674;13.074;2023-06-14T05:08:33;18.40;99.90
20233;DHT22;37438;55.674;13.074;2023-06-14T05:11:38;18.50;99.90
20233;DHT22;37438;55.674;13.074;2023-06-14T05:14:42;18.90;99.90
20233;DHT22;37438;55.674;13.074;2023-06-14T05:17:47;19.10;99.90
20233;DHT22;37438;55.674;13.074;2023-06-14T05:20:57;19.40;99.90
20233;DHT22;37438;55.674;13.074;2023-06-14T05:24:01;19.60;1.00
20233;DHT22;37438;55.674;13.074;2023-06-14T05:27:06;19.70;1.00
20233;DHT22;37438;55.674;13.074;2023-06-14T05:30:11;19.80;99.90
20233;DHT22;37438;55.674;13.074;2023-06-14T05:33:16;20.30;99.90
20233;DHT22;37438;55.674;13.074;2023-06-14T05:36:21;20.60;99.90
20233;DHT22;37438;55.674;13.074;2023-06-14T05:39:25;21.00;99.90
20233;DHT22;37438;55.674;13.074;2023-06-14T05:42:29;21.20;71.20
20233;DHT22;37438;55.674;13.074;2023-06-14T05:45:34;21.30;1.00
20233;DHT22;37438;55.674;13.074;2023-06-14T05:48:38;21.50;99.90
20233;DHT22;37438;55.674;13.074;2023-06-14T05:51:43;21.90;99.90
20233;DHT22;37438;55.674;13.074;2023-06-14T05:54:47;22.20;1.00
20233;DHT22;37438;55.674;13.074;2023-06-14T05:57:52;22.60;99.90
20233;DHT22;37438;55.674;13.074;2023-06-14T06:00:57;22.50;99.90
20233;DHT22;37438;55.674;13.074;2023-06-14T06:04:02;22.50;91.60
20233;DHT22;37438;55.674;13.074;2023-06-14T06:07:06;22.50;45.70
20233;DHT22;37438;55.674;13.074;2023-06-14T06:10:11;22.60;27.20
20233;DHT22;37438;55.674;13.074;2023-06-14T06:13:15;22.90;18.60
20233;DHT22;37438;55.674;13.074;2023-06-14T06:16:20;23.00;13.20
20233;DHT22;37438;55.674;13.074;2023-06-14T06:19:25;23.30;1.00
20233;DHT22;37438;55.674;13.074;2023-06-14T06:22:29;23.60;1.00
20233;DHT22;37438;55.674;13.074;2023-06-14T06:25:34;23.90;1.00
20233;DHT22;37438;55.674;13.074;2023-06-14T06:28:38;24.00;1.00
20233;DHT22;37438;55.674;13.074;2023-06-14T06:31:43;23.20;1.00
20233;DHT22;37438;55.674;13.074;2023-06-14T06:34:47;23.50;1.00
20233;DHT22;37438;55.674;13.074;2023-06-14T06:37:52;24.10;1.00
20233;DHT22;37438;55.674;13.074;2023-06-14T06:40:57;24.50;1.00
20233;DHT22;37438;55.674;13.074;2023-06-14T06:44:01;24.50;1.00
20233;DHT22;37438;55.674;13.074;2023-06-14T06:47:06;24.80;99.90
20233;DHT22;37438;55.674;13.074;2023-06-14T06:50:11;25.00;99.90
20233;DHT22;37438;55.674;13.074;2023-06-14T06:53:15;25.20;99.90
20233;DHT22;37438;55.674;13.074;2023-06-14T06:56:27;24.80;99.90
20233;DHT22;37438;55.674;13.074;2023-06-14T06:59:32;24.90;99.90
20233;DHT22;37438;55.674;13.074;2023-06-14T07:02:37;25.10;99.90
20233;DHT22;37438;55.674;13.074;2023-06-14T07:05:42;24.60;99.90
20233;DHT22;37438;55.674;13.074;2023-06-14T07:08:46;25.40;99.90
20233;DHT22;37438;55.674;13.074;2023-06-14T07:11:52;26.30;99.90
20233;DHT22;37438;55.674;13.074;2023-06-14T07:14:57;26.90;99.90
20233;DHT22;37438;55.674;13.074;2023-06-14T07:18:01;27.30;99.90
20233;DHT22;37438;55.674;13.074;2023-06-14T07:21:06;27.50;99.90
20233;DHT22;37438;55.674;13.074;2023-06-14T07:24:10;27.30;99.90
20233;DHT22;37438;55.674;13.074;2023-06-14T07:27:16;27.20;99.90
20233;DHT22;37438;55.674;13.074;2023-06-14T07:30:20;27.70;99.90
20233;DHT22;37438;55.674;13.074;2023-06-14T07:33:24;27.90;99.90
20233;DHT22;37438;55.674;13.074;2023-06-14T07:36:29;28.20;99.90
20233;DHT22;37438;55.674;13.074;2023-06-14T07:39:34;28.60;99.90
20233;DHT22;37438;55.674;13.074;2023-06-14T07:42:39;28.80;99.90
20233;DHT22;37438;55.674;13.074;2023-06-14T07:45:43;29.10;99.90
20233;DHT22;37438;55.674;13.074;2023-06-14T07:49:00;29.30;99.90
20233;DHT22;37438;55.674;13.074;2023-06-14T07:52:05;29.50;99.90
20233;DHT22;37438;55.674;13.074;2023-06-14T07:55:09;29.80;99.90
20233;DHT22;37438;55.674;13.074;2023-06-14T07:58:14;29.90;99.90
20233;DHT22;37438;55.674;13.074;2023-06-14T08:01:19;29.80;99.90
20233;DHT22;37438;55.674;13.074;2023-06-14T08:04:24;29.90;99.90
20233;DHT22;37438;55.674;13.074;2023-06-14T08:07:29;29.70;99.90
20233;DHT22;37438;55.674;13.074;2023-06-14T08:10:34;29.80;99.90
20233;DHT22;37438;55.674;13.074;2023-06-14T08:13:38;30.20;99.90
20233;DHT22;37438;55.674;13.074;2023-06-14T08:16:43;30.90;99.90
20233;DHT22;37438;55.674;13.074;2023-06-14T08:19:47;30.70;99.90
20233;DHT22;37438;55.674;13.074;2023-06-14T08:22:52;30.80;99.90
20233;DHT22;37438;55.674;13.074;2023-06-14T08:25:59;30.80;99.90
20233;DHT22;37438;55.674;13.074;2023-06-14T08:29:06;31.00;99.90
20233;DHT22;37438;55.674;13.074;2023-06-14T08:32:13;31.10;99.90
20233;DHT22;37438;55.674;13.074;2023-06-14T08:35:18;31.50;99.90
20233;DHT22;37438;55.674;13.074;2023-06-14T08:38:22;30.20;99.90
20233;DHT22;37438;55.674;13.074;2023-06-14T08:41:27;30.40;99.90
20233;DHT22;37438;55.674;13.074;2023-06-14T08:44:33;31.10;99.90
20233;DHT22;37438;55.674;13.074;2023-06-14T08:47:37;32.00;99.90
20233;DHT22;37438;55.674;13.074;2023-06-14T08:50:45;31.80;99.90
20233;DHT22;37438;55.674;13.074;2023-06-14T08:53:55;32.30;99.90
20233;DHT22;37438;55.674;13.074;2023-06-14T08:57:03;32.50;99.90
20233;DHT22;37438;55.674;13.074;2023-06-14T09:00:08;32.50;99.90
20233;DHT22;37438;55.674;13.074;2023-06-14T09:03:17;32.60;99.90
20233;DHT22;37438;55.674;13.074;2023-06-14T09:06:24;30.70;99.90
20233;DHT22;37438;55.674;13.074;2023-06-14T09:09:29;29.00;99.90
20233;DHT22;37438;55.674;13.074;2023-06-14T09:12:33;26.30;99.90
20233;DHT22;37438;55.674;13.074;2023-06-14T09:15:38;24.90;1.00
20233;DHT22;37438;55.674;13.074;2023-06-14T09:18:46;25.00;1.00
20233;DHT22;37438;55.674;13.074;2023-06-14T09:21:54;26.10;99.90
20233;DHT22;37438;55.674;13.074;2023-06-14T09:25:00;24.90;1.00
20233;DHT22;37438;55.674;13.074;2023-06-14T09:28:06;24.70;1.00
20233;DHT22;37438;55.674;13.074;2023-06-14T09:31:13;25.40;1.00
20233;DHT22;37438;55.674;13.074;2023-06-14T09:34:18;24.50;1.00
20233;DHT22;37438;55.674;13.074;2023-06-14T09:37:28;24.60;1.00
20233;DHT22;37438;55.674;13.074;2023-06-14T09:40:33;24.50;1.00
20233;DHT22;37438;55.674;13.074;2023-06-14T09:43:37;26.70;1.00
20233;DHT22;37438;55.674;13.074;2023-06-14T09:46:42;25.40;1.00
20233;DHT22;37438;55.674;13.074;2023-06-14T09:49:48;25.60;99.90
20233;DHT22;37438;55.674;13.074;2023-06-14T09:52:53;25.20;1.00
20233;DHT22;37438;55.674;13.074;2023-06-14T09:56:00;25.70;1.00
20233;DHT22;37438;55.674;13.074;2023-06-14T09:59:05;25.70;1.00
20233;DHT22;37438;55.674;13.074;2023-06-14T10:02:24;25.40;1.00
20233;DHT22;37438;55.674;13.074;2023-06-14T10:05:29;24.30;1.00
20233;DHT22;37438;55.674;13.074;2023-06-14T10:08:34;24.50;1.00
20233;DHT22;37438;55.674;13.074;2023-06-14T10:11:41;24.60;1.00
20233;DHT22;37438;55.674;13.074;2023-06-14T10:14:49;25.80;1.00
20233;DHT22;37438;55.674;13.074;2023-06-14T10:18:02;25.80;1.00
20233;DHT22;37438;55.674;13.074;2023-06-14T10:24:41;25.50;1.00
20233;DHT22;37438;55.674;13.074;2023-06-14T10:27:46;26.40;1.00
20233;DHT22;37438;55.674;13.074;2023-06-14T10:31:26;24.80;26.40
20233;DHT22;37438;55.674;13.074;2023-06-14T10:34:26;24.50;53.90
20233;DHT22;37438;55.674;13.074;2023-06-14T10:37:30;24.10;9.20
20233;DHT22;37438;55.674;13.074;2023-06-14T10:40:35;23.70;45.10
20233;DHT22;37438;55.674;13.074;2023-06-14T10:43:40;23.90;96.60
20233;DHT22;37438;55.674;13.074;2023-06-14T10:47:05;24.30;24.80
20233;DHT22;37438;55.674;13.074;2023-06-14T10:50:11;24.60;1.00
20233;DHT22;37438;55.674;13.074;2023-06-14T10:53:22;25.10;1.00
20233;DHT22;37438;55.674;13.074;2023-06-14T10:56:29;24.50;1.00
20233;DHT22;37438;55.674;13.074;2023-06-14T10:59:35;25.40;1.00
20233;DHT22;37438;55.674;13.074;2023-06-14T11:06:12;23.90;1.00
20233;DHT22;37438;55.674;13.074;2023-06-14T11:09:24;24.70;7.50
20233;DHT22;37438;55.674;13.074;2023-06-14T11:12:31;24.90;1.00
20233;DHT22;37438;55.674;13.074;2023-06-14T11:15:36;25.60;1.00
20233;DHT22;37438;55.674;13.074;2023-06-14T11:18:41;24.80;1.00
20233;DHT22;37438;55.674;13.074;2023-06-14T11:21:49;25.30;1.00
20233;DHT22;37438;55.674;13.074;2023-06-14T11:24:53;25.80;1.00
20233;DHT22;37438;55.674;13.074;2023-06-14T11:27:59;26.40;99.90
20233;DHT22;37438;55.674;13.074;2023-06-14T11:31:03;26.60;99.90
20233;DHT22;37438;55.674;13.074;2023-06-14T11:34:08;27.50;99.90
20233;DHT22;37438;55.674;13.074;2023-06-14T11:37:13;26.30;99.90
20233;DHT22;37438;55.674;13.074;2023-06-14T11:40:17;26.10;99.90
20233;DHT22;37438;55.674;13.074;2023-06-14T11:43:22;26.00;99.90
20233;DHT22;37438;55.674;13.074;2023-06-14T11:46:26;26.10;99.90
20233;DHT22;37438;55.674;13.074;2023-06-14T11:49:34;27.00;99.90
20233;DHT22;37438;55.674;13.074;2023-06-14T11:52:39;28.70;99.90
20233;DHT22;37438;55.674;13.074;2023-06-14T11:55:44;28.60;99.90
20233;DHT22;37438;55.674;13.074;2023-06-14T11:58:52;27.70;99.90
20233;DHT22;37438;55.674;13.074;2023-06-14T12:01:56;29.40;99.90
20233;DHT22;37438;55.674;13.074;2023-06-14T12:05:04;29.20;99.90
20233;DHT22;37438;55.674;13.074;2023-06-14T12:08:09;28.40;99.90
20233;DHT22;37438;55.674;13.074;2023-06-14T12:11:13;28.40;99.90
20233;DHT22;37438;55.674;13.074;2023-06-14T12:14:19;28.90;99.90
20233;DHT22;37438;55.674;13.074;2023-06-14T12:17:31;29.50;99.90
20233;DHT22;37438;55.674;13.074;2023-06-14T12:20:36;30.50;99.90
20233;DHT22;37438;55.674;13.074;2023-06-14T12:26:47;29.60;99.90
20233;DHT22;37438;55.674;13.074;2023-06-14T12:29:58;29.10;99.90
20233;DHT22;37438;55.674;13.074;2023-06-14T12:33:04;29.60;99.90
20233;DHT22;37438;55.674;13.074;2023-06-14T12:36:10;29.60;99.90
20233;DHT22;37438;55.674;13.074;2023-06-14T12:39:15;28.80;99.90
20233;DHT22;37438;55.674;13.074;2023-06-14T12:42:20;28.40;99.90
20233;DHT22;37438;55.674;13.074;2023-06-14T12:45:24;28.30;99.90
20233;DHT22;37438;55.674;13.074;2023-06-14T12:48:29;28.30;99.90
20233;DHT22;37438;55.674;13.074;2023-06-14T12:51:35;29.10;99.90
20233;DHT22;37438;55.674;13.074;2023-06-14T12:54:39;29.20;99.90
20233;DHT22;37438;55.674;13.074;2023-06-14T12:57:44;28.80;99.90
20233;DHT22;37438;55.674;13.074;2023-06-14T13:00:49;28.60;99.90
20233;DHT22;37438;55.674;13.074;2023-06-14T13:03:53;28.80;99.90
20233;DHT22;37438;55.674;13.074;2023-06-14T13:06:58;29.80;99.90
20233;DHT22;37438;55.674;13.074;2023-06-14T13:10:03;31.40;99.90
20233;DHT22;37438;55.674;13.074;2023-06-14T13:13:08;31.20;99.90
20233;DHT22;37438;55.674;13.074;2023-06-14T13:16:12;29.90;99.90
20233;DHT22;37438;55.674;13.074;2023-06-14T13:19:18;31.20;99.90
20233;DHT22;37438;55.674;13.074;2023-06-14T13:22:23;31.30;99.90
20233;DHT22;37438;55.674;13.074;2023-06-14T13:25:27;31.20;99.90
20233;DHT22;37438;55.674;13.074;2023-06-14T13:28:32;32.00;99.90
20233;DHT22;37438;55.674;13.074;2023-06-14T13:31:39;31.20;99.90
20233;DHT22;37438;55.674;13.074;2023-06-14T13:34:44;30.60;99.90
20233;DHT22;37438;55.674;13.074;2023-06-14T13:37:49;30.00;99.90
20233;DHT22;37438;55.674;13.074;2023-06-14T13:40:53;29.40;99.90
20233;DHT22;37438;55.674;13.074;2023-06-14T13:43:58;29.20;99.90
20233;DHT22;37438;55.674;13.074;2023-06-14T13:47:03;30.80;99.90
20233;DHT22;37438;55.674;13.074;2023-06-14T13:50:08;30.20;99.90
20233;DHT22;37438;55.674;13.074;2023-06-14T13:53:12;27.90;99.90
20233;DHT22;37438;55.674;13.074;2023-06-14T13:56:18;28.10;99.90
20233;DHT22;37438;55.674;13.074;2023-06-14T13:59:22;27.60;99.90
20233;DHT22;37438;55.674;13.074;2023-06-14T14:02:27;26.00;1.00
20233;DHT22;37438;55.674;13.074;2023-06-14T14:05:33;26.20;99.90
20233;DHT22;37438;55.674;13.074;2023-06-14T14:08:37;26.00;99.90
20233;DHT22;37438;55.674;13.074;2023-06-14T14:11:42;27.10;99.90
20233;DHT22;37438;55.674;13.074;2023-06-14T14:14:46;26.00;99.90
20233;DHT22;37438;55.674;13.074;2023-06-14T14:17:51;24.80;1.00
20233;DHT22;37438;55.674;13.074;2023-06-14T14:20:55;25.50;99.90
20233;DHT22;37438;55.674;13.074;2023-06-14T14:24:00;24.70;99.90
20233;DHT22;37438;55.674;13.074;2023-06-14T14:27:05;24.90;99.90
20233;DHT22;37438;55.674;13.074;2023-06-14T14:30:10;24.80;99.90
20233;DHT22;37438;55.674;13.074;2023-06-14T14:33:15;24.10;1.00
20233;DHT22;37438;55.674;13.074;2023-06-14T14:36:21;23.40;1.00
20233;DHT22;37438;55.674;13.074;2023-06-14T14:39:25;23.60;1.00
20233;DHT22;37438;55.674;13.074;2023-06-14T14:42:30;23.40;1.00
20233;DHT22;37438;55.674;13.074;2023-06-14T14:45:34;23.90;1.00
20233;DHT22;37438;55.674;13.074;2023-06-14T14:48:39;24.30;99.90
20233;DHT22;37438;55.674;13.074;2023-06-14T14:51:44;24.20;99.90
20233;DHT22;37438;55.674;13.074;2023-06-14T14:54:48;24.70;99.90
20233;DHT22;37438;55.674;13.074;2023-06-14T14:57:53;24.40;99.90
20233;DHT22;37438;55.674;13.074;2023-06-14T15:00:58;24.50;99.90
20233;DHT22;37438;55.674;13.074;2023-06-14T15:04:02;25.00;99.90
20233;DHT22;37438;55.674;13.074;2023-06-14T15:07:07;25.00;99.90
20233;DHT22;37438;55.674;13.074;2023-06-14T15:10:11;24.20;99.90
20233;DHT22;37438;55.674;13.074;2023-06-14T15:13:16;24.70;99.90
20233;DHT22;37438;55.674;13.074;2023-06-14T15:16:21;25.00;99.90
20233;DHT22;37438;55.674;13.074;2023-06-14T15:19:26;24.60;99.90
20233;DHT22;37438;55.674;13.074;2023-06-14T15:22:30;24.40;99.90
20233;DHT22;37438;55.674;13.074;2023-06-14T15:25:34;24.80;1.00
20233;DHT22;37438;55.674;13.074;2023-06-14T15:28:39;24.80;99.90
20233;DHT22;37438;55.674;13.074;2023-06-14T15:31:44;25.40;99.90
20233;DHT22;37438;55.674;13.074;2023-06-14T15:34:49;24.80;99.90
20233;DHT22;37438;55.674;13.074;2023-06-14T15:37:53;24.90;99.90
20233;DHT22;37438;55.674;13.074;2023-06-14T15:40:58;24.80;99.90
20233;DHT22;37438;55.674;13.074;2023-06-14T15:44:02;25.30;99.90
20233;DHT22;37438;55.674;13.074;2023-06-14T15:47:07;25.00;99.90
20233;DHT22;37438;55.674;13.074;2023-06-14T15:50:12;25.00;99.90
20233;DHT22;37438;55.674;13.074;2023-06-14T15:53:17;24.60;99.90
20233;DHT22;37438;55.674;13.074;2023-06-14T15:56:21;25.50;99.90
20233;DHT22;37438;55.674;13.074;2023-06-14T15:59:26;25.90;99.90
20233;DHT22;37438;55.674;13.074;2023-06-14T16:02:32;25.20;99.90
20233;DHT22;37438;55.674;13.074;2023-06-14T16:05:36;25.20;99.90
20233;DHT22;37438;55.674;13.074;2023-06-14T16:08:41;25.20;99.90
20233;DHT22;37438;55.674;13.074;2023-06-14T16:11:46;25.10;99.90
20233;DHT22;37438;55.674;13.074;2023-06-14T16:14:50;24.80;99.90
20233;DHT22;37438;55.674;13.074;2023-06-14T16:17:55;24.60;99.90
20233;DHT22;37438;55.674;13.074;2023-06-14T16:20:59;24.60;99.90
20233;DHT22;37438;55.674;13.074;2023-06-14T16:24:04;24.00;99.90
20233;DHT22;37438;55.674;13.074;2023-06-14T16:27:09;24.60;99.90
20233;DHT22;37438;55.674;13.074;2023-06-14T16:30:17;24.60;99.90
20233;DHT22;37438;55.674;13.074;2023-06-14T16:33:22;24.20;99.90
20233;DHT22;37438;55.674;13.074;2023-06-14T16:36:26;23.50;1.00
20233;DHT22;37438;55.674;13.074;2023-06-14T16:39:30;22.60;1.00
20233;DHT22;37438;55.674;13.074;2023-06-14T16:42:35;21.80;11.80
20233;DHT22;37438;55.674;13.074;2023-06-14T16:45:40;21.80;6.10
20233;DHT22;37438;55.674;13.074;2023-06-14T16:48:45;21.30;1.00
20233;DHT22;37438;55.674;13.074;2023-06-14T16:51:49;21.60;1.00
20233;DHT22;37438;55.674;13.074;2023-06-14T16:54:54;21.40;1.00
20233;DHT22;37438;55.674;13.074;2023-06-14T16:57:58;21.50;1.00
20233;DHT22;37438;55.674;13.074;2023-06-14T17:01:03;21.40;1.00
20233;DHT22;37438;55.674;13.074;2023-06-14T17:04:08;21.20;1.00
20233;DHT22;37438;55.674;13.074;2023-06-14T17:07:13;21.10;1.00
20233;DHT22;37438;55.674;13.074;2023-06-14T17:10:17;21.00;1.00
20233;DHT22;37438;55.674;13.074;2023-06-14T17:13:22;21.00;1.00
20233;DHT22;37438;55.674;13.074;2023-06-14T17:16:26;20.80;1.00
20233;DHT22;37438;55.674;13.074;2023-06-14T17:19:31;21.00;1.00
20233;DHT22;37438;55.674;13.074;2023-06-14T17:22:35;20.90;23.00
20233;DHT22;37438;55.674;13.074;2023-06-14T17:25:40;20.70;35.30
20233;DHT22;37438;55.674;13.074;2023-06-14T17:28:44;21.00;44.20
20233;DHT22;37438;55.674;13.074;2023-06-14T17:31:49;20.70;1.00
20233;DHT22;37438;55.674;13.074;2023-06-14T17:34:54;20.60;6.40
20233;DHT22;37438;55.674;13.074;2023-06-14T17:37:58;20.80;8.90
20233;DHT22;37438;55.674;13.074;2023-06-14T17:41:03;21.00;58.50
20233;DHT22;37438;55.674;13.074;2023-06-14T17:44:13;21.00;99.90
20233;DHT22;37438;55.674;13.074;2023-06-14T17:47:18;20.70;85.00
20233;DHT22;37438;55.674;13.074;2023-06-14T17:50:31;20.60;99.90
20233;DHT22;37438;55.674;13.074;2023-06-14T17:53:36;20.60;99.90
20233;DHT22;37438;55.674;13.074;2023-06-14T17:56:41;20.40;99.90
20233;DHT22;37438;55.674;13.074;2023-06-14T17:59:45;20.10;99.90
20233;DHT22;37438;55.674;13.074;2023-06-14T18:02:50;20.20;5.20
20233;DHT22;37438;55.674;13.074;2023-06-14T18:05:54;20.40;94.80
20233;DHT22;37438;55.674;13.074;2023-06-14T18:08:59;20.10;99.90
20233;DHT22;37438;55.674;13.074;2023-06-14T18:12:04;20.00;99.90
20233;DHT22;37438;55.674;13.074;2023-06-14T18:15:13;20.00;99.90
20233;DHT22;37438;55.674;13.074;2023-06-14T18:18:18;19.90;99.90
20233;DHT22;37438;55.674;13.074;2023-06-14T18:21:23;20.00;99.90
20233;DHT22;37438;55.674;13.074;2023-06-14T18:24:27;20.00;99.90
20233;DHT22;37438;55.674;13.074;2023-06-14T18:27:32;20.00;99.90
20233;DHT22;37438;55.674;13.074;2023-06-14T18:30:36;19.90;99.90
20233;DHT22;37438;55.674;13.074;2023-06-14T18:33:41;19.90;99.90
20233;DHT22;37438;55.674;13.074;2023-06-14T18:36:45;19.90;99.90
20233;DHT22;37438;55.674;13.074;2023-06-14T18:39:50;19.80;99.90
20233;DHT22;37438;55.674;13.074;2023-06-14T18:42:54;19.80;99.90
20233;DHT22;37438;55.674;13.074;2023-06-14T18:46:01;19.70;99.90
20233;DHT22;37438;55.674;13.074;2023-06-14T18:49:05;19.60;3.90
20233;DHT22;37438;55.674;13.074;2023-06-14T18:52:10;19.50;99.90
20233;DHT22;37438;55.674;13.074;2023-06-14T18:55:17;19.30;99.90
20233;DHT22;37438;55.674;13.074;2023-06-14T18:58:22;19.30;38.90
20233;DHT22;37438;55.674;13.074;2023-06-14T19:01:27;19.30;99.90
20233;DHT22;37438;55.674;13.074;2023-06-14T19:04:32;19.30;99.90
20233;DHT22;37438;55.674;13.074;2023-06-14T19:07:37;19.40;99.90
20233;DHT22;37438;55.674;13.074;2023-06-14T19:10:42;19.20;99.90
20233;DHT22;37438;55.674;13.074;2023-06-14T19:13:46;19.10;99.90
20233;DHT22;37438;55.674;13.074;2023-06-14T19:16:51;19.10;99.90
20233;DHT22;37438;55.674;13.074;2023-06-14T19:19:55;19.00;99.90
20233;DHT22;37438;55.674;13.074;2023-06-14T19:23:00;18.90;99.90
20233;DHT22;37438;55.674;13.074;2023-06-14T19:26:07;18.90;99.90
20233;DHT22;37438;55.674;13.074;2023-06-14T19:29:12;18.80;99.90